Antioch, Mississippi
Current Conditions -  °F | °C
As of 11:35 AM on Tuesday 21 Oct 2014 (Local Time) from KPIB Reporting Station
Clear Clear  
Wind Chill: 73°   Ceiling: Unl
Heat Index: 73°   Visibility: 9mi
Dew Point: 50°   Wind: 6mph
Humidity: 44%   Direction: 20°NNE
Pressure: 30.1"   Gusts: NA
Location:  31.6875°N, 89.1116°W
Report Text: KPIB 211635Z AUTO 02005KT 9SM CLR 23/10 A3010 RMK AO1
Loading
Personal Weather Stations






























Interactive Weather Map
Tropical Storm Tracking
New forecast layout! Learn more

10-Day Weather Forecast

Advertisements
Track Severe Weather on mobile